Time,TemperatureF,DewpointF,PressureIn,WindDirection,WindDirectionDegrees,WindSpeedMPH,WindSpeedGustMPH,Humidity,HourlyPrecipIn,Conditions,Clouds,dailyrainin,SoftwareType,DateUTC
2013-01-09 00:14:00,38.9,34.0,30.06,SW,225,0.0,-999.0,82,-99.99,,,0.00,weatherlink.com 1.10,2013-01-09 06:14:00,
2013-01-09 00:29:00,39.4,34.0,30.05,SW,234,0.0,-999.0,81,-99.99,,,0.00,weatherlink.com 1.10,2013-01-09 06:29:00,
2013-01-09 00:44:00,39.9,34.0,30.05,SW,234,0.0,-999.0,80,-99.99,,,0.00,weatherlink.com 1.10,2013-01-09 06:44:00,
2013-01-09 00:59:00,40.5,34.0,30.05,WSW,237,0.0,-999.0,79,-99.99,,,0.00,weatherlink.com 1.10,2013-01-09 06:59:00,
2013-01-09 01:14:00,40.6,35.0,30.06,SW,231,0.0,-999.0,79,-99.99,,,0.00,weatherlink.com 1.10,2013-01-09 07:14:00,
2013-01-09 01:29:00,40.8,34.0,30.06,WSW,244,0.0,-999.0,78,-99.99,,,0.00,weatherlink.com 1.10,2013-01-09 07:29:00,
2013-01-09 01:44:00,40.9,35.0,30.07,SW,235,0.0,-999.0,78,-99.99,,,0.00,weatherlink.com 1.10,2013-01-09 07:44:00,
2013-01-09 01:59:00,40.3,34.0,30.07,WSW,238,0.0,-999.0,78,-99.99,,,0.00,weatherlink.com 1.10,2013-01-09 07:59:00,
2013-01-09 02:14:00,39.4,33.0,30.08,WSW,242,0.0,-999.0,79,-99.99,,,0.00,weatherlink.com 1.10,2013-01-09 08:14:00,
2013-01-09 02:29:00,39.2,34.0,30.09,WSW,240,0.0,-999.0,80,-99.99,,,0.00,weatherlink.com 1.10,2013-01-09 08:29:00,
2013-01-09 02:44:00,38.8,33.0,30.09,WSW,246,0.0,-999.0,80,-99.99,,,0.00,weatherlink.com 1.10,2013-01-09 08:44:00,
2013-01-09 02:59:00,38.7,33.0,30.09,West,273,0.0,-999.0,80,-99.99,,,0.00,weatherlink.com 1.10,2013-01-09 08:59:00,
2013-01-09 03:14:00,38.6,33.0,30.10,West,268,0.0,-999.0,80,-99.99,,,0.00,weatherlink.com 1.10,2013-01-09 09:14:00,
2013-01-09 03:29:00,38.1,32.0,30.10,West,271,0.0,-999.0,80,-99.99,,,0.00,weatherlink.com 1.10,2013-01-09 09:29:00,
2013-01-09 03:44:00,37.6,32.0,30.11,WNW,289,0.0,-999.0,81,-99.99,,,0.00,weatherlink.com 1.10,2013-01-09 09:44:00,
2013-01-09 03:59:00,37.8,32.0,30.11,West,266,0.0,-999.0,81,-99.99,,,0.00,weatherlink.com 1.10,2013-01-09 09:59:00,
2013-01-09 04:14:00,38.0,33.0,30.12,West,269,0.0,-999.0,81,-99.99,,,0.00,weatherlink.com 1.10,2013-01-09 10:14:00,
2013-01-09 04:29:00,38.3,33.0,30.12,West,277,0.0,-999.0,80,-99.99,,,0.00,weatherlink.com 1.10,2013-01-09 10:29:00,
2013-01-09 04:44:00,38.3,33.0,30.13,WNW,298,0.0,-999.0,80,-99.99,,,0.00,weatherlink.com 1.10,2013-01-09 10:44:00,
2013-01-09 04:59:00,37.7,32.0,30.14,WNW,291,0.0,-999.0,81,-99.99,,,0.00,weatherlink.com 1.10,2013-01-09 10:59:00,
2013-01-09 05:14:00,37.5,32.0,30.15,West,279,0.0,-999.0,81,-99.99,,,0.00,weatherlink.com 1.10,2013-01-09 11:14:00,
2013-01-09 05:29:00,37.3,32.0,30.16,West,269,0.0,-999.0,82,-99.99,,,0.00,weatherlink.com 1.10,2013-01-09 11:29:00,
2013-01-09 05:44:00,36.9,32.0,30.16,WNW,285,0.0,-999.0,83,-99.99,,,0.00,weatherlink.com 1.10,2013-01-09 11:44:00,
2013-01-09 05:59:00,36.6,32.0,30.17,WNW,285,0.0,-999.0,84,-99.99,,,0.00,weatherlink.com 1.10,2013-01-09 11:59:00,
2013-01-09 06:14:00,36.1,32.0,30.19,West,269,0.0,-999.0,84,-99.99,,,0.00,weatherlink.com 1.10,2013-01-09 12:14:00,
2013-01-09 06:29:00,35.8,32.0,30.21,WNW,298,0.0,-999.0,85,-99.99,,,0.00,weatherlink.com 1.10,2013-01-09 12:29:00,
2013-01-09 06:44:00,35.4,32.0,30.22,WNW,300,0.0,-999.0,86,-99.99,,,0.00,weatherlink.com 1.10,2013-01-09 12:44:00,
2013-01-09 06:59:00,34.7,31.0,30.23,West,270,0.0,-999.0,86,-99.99,,,0.00,weatherlink.com 1.10,2013-01-09 12:59:00,
2013-01-09 07:14:00,34.0,31.0,30.24,West,272,0.0,-999.0,87,-99.99,,,0.00,weatherlink.com 1.10,2013-01-09 13:14:00,
2013-01-09 07:29:00,33.5,30.0,30.24,West,270,0.0,-999.0,88,-99.99,,,0.00,weatherlink.com 1.10,2013-01-09 13:29:00,
2013-01-09 07:44:00,33.5,30.0,30.24,WNW,286,0.0,-999.0,88,-99.99,,,0.00,weatherlink.com 1.10,2013-01-09 13:44:00,
2013-01-09 07:59:00,34.1,31.0,30.25,West,271,0.0,-999.0,88,-99.99,,,0.00,weatherlink.com 1.10,2013-01-09 13:59:00,
2013-01-09 08:14:00,34.8,31.0,30.25,West,266,0.0,-999.0,87,-99.99,,,0.00,weatherlink.com 1.10,2013-01-09 14:14:00,
2013-01-09 08:29:00,35.6,32.0,30.25,West,279,0.0,-999.0,87,-99.99,,,0.00,weatherlink.com 1.10,2013-01-09 14:29:00,
2013-01-09 08:44:00,36.6,33.0,30.27,West,261,0.0,-999.0,85,-99.99,,,0.00,weatherlink.com 1.10,2013-01-09 14:44:00,
2013-01-09 08:59:00,37.2,33.0,30.28,West,269,0.0,-999.0,84,-99.99,,,0.00,weatherlink.com 1.10,2013-01-09 14:59:00,
2013-01-09 09:29:00,39.3,34.0,30.30,WNW,302,0.0,-999.0,81,-99.99,,,0.00,weatherlink.com 1.10,2013-01-09 15:29:00,
2013-01-09 09:44:00,40.5,34.0,30.30,West,266,0.0,-999.0,78,-99.99,,,0.00,weatherlink.com 1.10,2013-01-09 15:44:00,
2013-01-09 09:59:00,41.6,35.0,30.31,NW,306,0.0,-999.0,76,-99.99,,,0.00,weatherlink.com 1.10,2013-01-09 15:59:00,
2013-01-09 10:14:00,42.7,35.0,30.31,NW,314,0.0,-999.0,74,-99.99,,,0.00,weatherlink.com 1.10,2013-01-09 16:14:00,
2013-01-09 10:29:00,43.6,35.0,30.30,NW,321,0.0,-999.0,72,-99.99,,,0.00,weatherlink.com 1.10,2013-01-09 16:29:00,
2013-01-09 10:44:00,44.7,35.0,30.31,West,266,0.0,-999.0,70,-99.99,,,0.00,weatherlink.com 1.10,2013-01-09 16:44:00,
2013-01-09 10:59:00,45.2,36.0,30.31,WNW,301,0.0,-999.0,69,-99.99,,,0.00,weatherlink.com 1.10,2013-01-09 16:59:00,
2013-01-09 11:14:00,45.8,35.0,30.31,WNW,296,0.0,-999.0,66,-99.99,,,0.00,weatherlink.com 1.10,2013-01-09 17:14:00,
2013-01-09 11:29:00,46.7,35.0,30.31,NW,304,0.0,-999.0,64,-99.99,,,0.00,weatherlink.com 1.10,2013-01-09 17:29:00,
2013-01-09 11:44:00,46.8,34.0,30.32,NW,319,0.0,-999.0,62,-99.99,,,0.00,weatherlink.com 1.10,2013-01-09 17:44:00,
2013-01-09 11:59:00,47.6,35.0,30.31,NW,315,0.0,-999.0,62,-99.99,,,0.00,weatherlink.com 1.10,2013-01-09 17:59:00,
2013-01-09 12:14:00,49.1,35.0,30.31,NW,315,0.0,-999.0,58,-99.99,,,0.00,weatherlink.com 1.10,2013-01-09 18:14:00,
2013-01-09 12:29:00,49.1,33.0,30.32,NW,323,0.0,-999.0,54,-99.99,,,0.00,weatherlink.com 1.10,2013-01-09 18:29:00,
2013-01-09 12:44:00,49.7,32.0,30.32,NW,315,0.0,-999.0,50,-99.99,,,0.00,weatherlink.com 1.10,2013-01-09 18:44:00,
2013-01-09 12:59:00,49.8,30.0,30.32,NW,319,0.0,-999.0,47,-99.99,,,0.00,weatherlink.com 1.10,2013-01-09 18:59:00,
2013-01-09 13:14:00,50.5,30.0,30.32,NW,307,0.0,-999.0,45,-99.99,,,0.00,weatherlink.com 1.10,2013-01-09 19:14:00,
2013-01-09 13:29:00,49.9,29.0,30.33,NW,310,0.0,-999.0,45,-99.99,,,0.00,weatherlink.com 1.10,2013-01-09 19:29:00,
2013-01-09 13:44:00,50.5,30.0,30.34,NW,317,0.0,-999.0,45,-99.99,,,0.00,weatherlink.com 1.10,2013-01-09 19:44:00,
2013-01-09 13:59:00,50.3,28.0,30.34,NW,314,0.0,-999.0,43,-99.99,,,0.00,weatherlink.com 1.10,2013-01-09 19:59:00,
2013-01-09 14:14:00,50.1,29.0,30.35,NNW,327,0.0,-999.0,44,-99.99,,,0.00,weatherlink.com 1.10,2013-01-09 20:14:00,
2013-01-09 14:29:00,49.6,29.0,30.35,NNW,330,0.0,-999.0,46,-99.99,,,0.00,weatherlink.com 1.10,2013-01-09 20:29:00,
2013-01-09 14:44:00,49.5,28.0,30.35,NNW,329,0.0,-999.0,44,-99.99,,,0.00,weatherlink.com 1.10,2013-01-09 20:44:00,
2013-01-09 14:59:00,49.0,28.0,30.37,NW,315,0.0,-999.0,45,-99.99,,,0.00,weatherlink.com 1.10,2013-01-09 20:59:00,
2013-01-09 15:14:00,48.6,28.0,30.38,NNW,330,0.0,-999.0,45,-99.99,,,0.00,weatherlink.com 1.10,2013-01-09 21:14:00,
2013-01-09 15:29:00,47.8,26.0,30.39,NNW,328,0.0,-999.0,43,-99.99,,,0.00,weatherlink.com 1.10,2013-01-09 21:29:00,
2013-01-09 15:48:00,47.2,25.0,30.39,NNW,336,0.0,-999.0,42,-99.99,,,0.00,weatherlink.com 1.10,2013-01-09 21:48:00,
2013-01-09 15:59:00,46.3,25.0,30.40,NNW,334,0.0,-999.0,43,-99.99,,,0.00,weatherlink.com 1.10,2013-01-09 21:59:00,
2013-01-09 16:14:00,45.2,24.0,30.41,NW,322,0.0,-999.0,43,-99.99,,,0.00,weatherlink.com 1.10,2013-01-09 22:14:00,
2013-01-09 16:29:00,44.0,24.0,30.42,NNW,342,0.0,-999.0,45,-99.99,,,0.00,weatherlink.com 1.10,2013-01-09 22:29:00,
2013-01-09 16:44:00,43.1,24.0,30.42,NNW,338,0.0,-999.0,47,-99.99,,,0.00,weatherlink.com 1.10,2013-01-09 22:44:00,
2013-01-09 17:14:00,41.1,25.0,30.42,NNW,331,0.0,-999.0,53,-99.99,,,0.00,weatherlink.com 1.10,2013-01-09 23:14:00,
2013-01-09 17:29:00,39.9,25.0,30.43,NNW,341,0.0,-999.0,56,-99.99,,,0.00,weatherlink.com 1.10,2013-01-09 23:29:00,
2013-01-09 17:44:00,38.7,25.0,30.44,North,355,0.0,-999.0,59,-99.99,,,0.00,weatherlink.com 1.10,2013-01-09 23:44:00,
2013-01-09 17:59:00,37.5,25.0,30.44,North,9,0.0,-999.0,61,-99.99,,,0.00,weatherlink.com 1.10,2013-01-09 23:59:00,
2013-01-09 18:14:00,36.9,25.0,30.44,NNW,341,0.0,-999.0,62,-99.99,,,0.00,weatherlink.com 1.10,2013-01-10 00:14:00,
2013-01-09 18:29:00,36.9,25.0,30.45,North,350,0.0,-999.0,62,-99.99,,,0.00,weatherlink.com 1.10,2013-01-10 00:29:00,
2013-01-09 18:44:00,36.1,24.0,30.46,NW,317,0.0,-999.0,63,-99.99,,,0.00,weatherlink.com 1.10,2013-01-10 00:44:00,
2013-01-09 18:59:00,35.1,24.0,30.46,NW,316,0.0,-999.0,65,-99.99,,,0.00,weatherlink.com 1.10,2013-01-10 00:59:00,
2013-01-09 19:14:00,32.8,24.0,30.47,NW,313,0.0,-999.0,71,-99.99,,,0.00,weatherlink.com 1.10,2013-01-10 01:14:00,
2013-01-09 19:29:00,33.0,24.0,30.47,West,279,0.0,-999.0,70,-99.99,,,0.00,weatherlink.com 1.10,2013-01-10 01:29:00,
2013-01-09 19:44:00,33.1,24.0,30.47,West,280,0.0,-999.0,69,-99.99,,,0.00,weatherlink.com 1.10,2013-01-10 01:44:00,
2013-01-09 19:59:00,33.3,24.0,30.48,West,280,0.0,-999.0,69,-99.99,,,0.00,weatherlink.com 1.10,2013-01-10 01:59:00,
2013-01-09 20:14:00,32.1,23.0,30.48,West,280,0.0,-999.0,70,-99.99,,,0.00,weatherlink.com 1.10,2013-01-10 02:14:00,
2013-01-09 20:29:00,30.3,23.0,30.48,West,280,0.0,-999.0,73,-99.99,,,0.00,weatherlink.com 1.10,2013-01-10 02:29:00,
2013-01-09 20:44:00,28.3,22.0,30.48,West,280,0.0,-999.0,76,-99.99,,,0.00,weatherlink.com 1.10,2013-01-10 02:44:00,
2013-01-09 20:59:00,28.1,21.0,30.48,West,279,0.0,-999.0,76,-99.99,,,0.00,weatherlink.com 1.10,2013-01-10 02:59:00,
2013-01-09 21:14:00,27.9,23.0,30.47,West,279,0.0,-999.0,82,-99.99,,,0.00,weatherlink.com 1.10,2013-01-10 03:14:00,
2013-01-09 21:29:00,29.2,24.0,30.47,West,279,0.0,-999.0,81,-99.99,,,0.00,weatherlink.com 1.10,2013-01-10 03:29:00,
2013-01-09 21:44:00,29.8,24.0,30.47,West,274,0.0,-999.0,79,-99.99,,,0.00,weatherlink.com 1.10,2013-01-10 03:44:00,
2013-01-09 21:59:00,29.7,24.0,30.47,West,279,0.0,-999.0,78,-99.99,,,0.00,weatherlink.com 1.10,2013-01-10 03:59:00,
2013-01-09 22:14:00,28.8,23.0,30.48,NW,310,0.0,-999.0,78,-99.99,,,0.00,weatherlink.com 1.10,2013-01-10 04:14:00,
2013-01-09 22:29:00,28.0,22.0,30.49,WNW,288,0.0,-999.0,78,-99.99,,,0.00,weatherlink.com 1.10,2013-01-10 04:29:00,
2013-01-09 22:44:00,27.9,23.0,30.50,WNW,287,0.0,-999.0,82,-99.99,,,0.00,weatherlink.com 1.10,2013-01-10 04:44:00,
2013-01-09 22:59:00,26.4,22.0,30.50,West,265,0.0,-999.0,82,-99.99,,,0.00,weatherlink.com 1.10,2013-01-10 04:59:00,
2013-01-09 23:14:00,25.2,21.0,30.51,WSW,255,0.0,-999.0,83,-99.99,,,0.00,weatherlink.com 1.10,2013-01-10 05:14:00,
2013-01-09 23:45:00,26.3,23.0,30.51,WSW,255,0.0,-999.0,86,-99.99,,,0.00,weatherlink.com 1.10,2013-01-10 05:45:00,
2013-01-09 23:59:00,26.9,23.0,30.51,WSW,255,0.0,-999.0,85,-99.99,,,0.00,weatherlink.com 1.10,2013-01-10 05:59:00,